sensor_id;sensor_type;location;lat;lon;timestamp;P1;durP1;ratioP1;P2;durP2;ratioP2
53977;SDS011;39886;47.984;-1.586;2023-04-28T00:01:20;1.10;;;1.00;;
53977;SDS011;39886;47.984;-1.586;2023-04-28T00:03:46;1.23;;;1.00;;
53977;SDS011;39886;47.984;-1.586;2023-04-28T00:06:12;0.90;;;0.90;;
53977;SDS011;39886;47.984;-1.586;2023-04-28T00:08:39;0.90;;;0.90;;
53977;SDS011;39886;47.984;-1.586;2023-04-28T00:11:11;1.80;;;1.02;;
53977;SDS011;39886;47.984;-1.586;2023-04-28T00:13:37;1.00;;;1.00;;
53977;SDS011;39886;47.984;-1.586;2023-04-28T00:16:03;1.00;;;1.00;;
53977;SDS011;39886;47.984;-1.586;2023-04-28T00:18:29;1.08;;;1.02;;
53977;SDS011;39886;47.984;-1.586;2023-04-28T00:20:55;1.23;;;1.00;;
53977;SDS011;39886;47.984;-1.586;2023-04-28T00:23:21;0.93;;;0.90;;
53977;SDS011;39886;47.984;-1.586;2023-04-28T00:25:53;1.05;;;0.98;;
53977;SDS011;39886;47.984;-1.586;2023-04-28T00:28:20;0.90;;;0.90;;
53977;SDS011;39886;47.984;-1.586;2023-04-28T00:30:46;1.08;;;0.93;;
53977;SDS011;39886;47.984;-1.586;2023-04-28T00:33:12;1.05;;;1.00;;
53977;SDS011;39886;47.984;-1.586;2023-04-28T00:35:38;0.98;;;0.98;;
53977;SDS011;39886;47.984;-1.586;2023-04-28T00:38:04;1.15;;;0.98;;
53977;SDS011;39886;47.984;-1.586;2023-04-28T00:40:33;0.90;;;0.90;;
53977;SDS011;39886;47.984;-1.586;2023-04-28T00:42:59;1.30;;;1.20;;
53977;SDS011;39886;47.984;-1.586;2023-04-28T00:45:25;1.25;;;1.00;;
53977;SDS011;39886;47.984;-1.586;2023-04-28T00:47:51;1.30;;;0.93;;
53977;SDS011;39886;47.984;-1.586;2023-04-28T00:50:17;1.08;;;1.02;;
53977;SDS011;39886;47.984;-1.586;2023-04-28T00:52:43;2.25;;;1.00;;
53977;SDS011;39886;47.984;-1.586;2023-04-28T00:55:09;1.40;;;0.93;;
53977;SDS011;39886;47.984;-1.586;2023-04-28T00:57:35;0.93;;;0.93;;
53977;SDS011;39886;47.984;-1.586;2023-04-28T01:00:01;1.15;;;1.00;;
53977;SDS011;39886;47.984;-1.586;2023-04-28T01:02:28;1.15;;;1.08;;
53977;SDS011;39886;47.984;-1.586;2023-04-28T01:04:55;0.90;;;0.90;;
53977;SDS011;39886;47.984;-1.586;2023-04-28T01:07:23;0.75;;;0.75;;
53977;SDS011;39886;47.984;-1.586;2023-04-28T01:09:48;1.25;;;1.15;;
53977;SDS011;39886;47.984;-1.586;2023-04-28T01:12:15;0.90;;;0.90;;
53977;SDS011;39886;47.984;-1.586;2023-04-28T01:14:41;1.00;;;1.00;;
53977;SDS011;39886;47.984;-1.586;2023-04-28T01:17:07;1.38;;;1.10;;
53977;SDS011;39886;47.984;-1.586;2023-04-28T01:19:33;1.10;;;1.00;;
53977;SDS011;39886;47.984;-1.586;2023-04-28T01:21:59;0.90;;;0.90;;
53977;SDS011;39886;47.984;-1.586;2023-04-28T01:24:25;1.40;;;1.17;;
53977;SDS011;39886;47.984;-1.586;2023-04-28T01:26:50;0.90;;;0.88;;
53977;SDS011;39886;47.984;-1.586;2023-04-28T01:29:16;0.98;;;0.98;;
53977;SDS011;39886;47.984;-1.586;2023-04-28T01:31:42;1.00;;;1.00;;
53977;SDS011;39886;47.984;-1.586;2023-04-28T01:34:07;0.98;;;0.77;;
53977;SDS011;39886;47.984;-1.586;2023-04-28T01:36:33;1.42;;;1.02;;
53977;SDS011;39886;47.984;-1.586;2023-04-28T01:38:59;0.90;;;0.90;;
53977;SDS011;39886;47.984;-1.586;2023-04-28T01:41:25;0.82;;;0.82;;
53977;SDS011;39886;47.984;-1.586;2023-04-28T01:43:50;0.90;;;0.90;;
53977;SDS011;39886;47.984;-1.586;2023-04-28T01:46:16;1.20;;;1.10;;
53977;SDS011;39886;47.984;-1.586;2023-04-28T01:48:42;1.30;;;1.20;;
53977;SDS011;39886;47.984;-1.586;2023-04-28T01:51:08;1.30;;;1.20;;
53977;SDS011;39886;47.984;-1.586;2023-04-28T01:53:33;1.10;;;1.10;;
53977;SDS011;39886;47.984;-1.586;2023-04-28T01:55:59;0.95;;;0.95;;
53977;SDS011;39886;47.984;-1.586;2023-04-28T01:58:25;1.65;;;1.27;;
53977;SDS011;39886;47.984;-1.586;2023-04-28T02:00:51;1.23;;;1.13;;
53977;SDS011;39886;47.984;-1.586;2023-04-28T02:03:16;1.00;;;1.00;;
53977;SDS011;39886;47.984;-1.586;2023-04-28T02:05:42;1.17;;;1.08;;
53977;SDS011;39886;47.984;-1.586;2023-04-28T02:08:08;1.08;;;1.00;;
53977;SDS011;39886;47.984;-1.586;2023-04-28T02:10:34;1.52;;;0.85;;
53977;SDS011;39886;47.984;-1.586;2023-04-28T02:12:59;0.80;;;0.80;;
53977;SDS011;39886;47.984;-1.586;2023-04-28T02:15:25;0.88;;;0.88;;
53977;SDS011;39886;47.984;-1.586;2023-04-28T02:17:51;1.10;;;1.00;;
53977;SDS011;39886;47.984;-1.586;2023-04-28T02:20:17;1.00;;;1.00;;
53977;SDS011;39886;47.984;-1.586;2023-04-28T02:22:43;1.05;;;1.05;;
53977;SDS011;39886;47.984;-1.586;2023-04-28T02:25:09;0.93;;;0.93;;
53977;SDS011;39886;47.984;-1.586;2023-04-28T02:27:35;1.20;;;1.10;;
53977;SDS011;39886;47.984;-1.586;2023-04-28T02:30:01;1.05;;;0.95;;
53977;SDS011;39886;47.984;-1.586;2023-04-28T02:32:30;0.82;;;0.82;;
53977;SDS011;39886;47.984;-1.586;2023-04-28T02:34:56;1.20;;;1.10;;
53977;SDS011;39886;47.984;-1.586;2023-04-28T02:37:22;1.13;;;1.10;;
53977;SDS011;39886;47.984;-1.586;2023-04-28T02:39:48;1.10;;;1.10;;
53977;SDS011;39886;47.984;-1.586;2023-04-28T02:42:14;1.10;;;1.10;;
53977;SDS011;39886;47.984;-1.586;2023-04-28T02:44:40;1.20;;;1.10;;
53977;SDS011;39886;47.984;-1.586;2023-04-28T02:47:06;1.00;;;1.00;;
53977;SDS011;39886;47.984;-1.586;2023-04-28T02:49:31;1.33;;;1.23;;
53977;SDS011;39886;47.984;-1.586;2023-04-28T02:51:57;1.05;;;0.80;;
53977;SDS011;39886;47.984;-1.586;2023-04-28T02:54:23;1.13;;;1.02;;
53977;SDS011;39886;47.984;-1.586;2023-04-28T02:56:55;1.20;;;1.10;;
53977;SDS011;39886;47.984;-1.586;2023-04-28T02:59:21;0.95;;;0.95;;
53977;SDS011;39886;47.984;-1.586;2023-04-28T03:01:47;0.90;;;0.90;;
53977;SDS011;39886;47.984;-1.586;2023-04-28T03:04:14;1.10;;;1.00;;
53977;SDS011;39886;47.984;-1.586;2023-04-28T03:06:40;1.05;;;1.05;;
53977;SDS011;39886;47.984;-1.586;2023-04-28T03:09:06;0.95;;;0.95;;
53977;SDS011;39886;47.984;-1.586;2023-04-28T03:11:33;1.20;;;1.10;;
53977;SDS011;39886;47.984;-1.586;2023-04-28T03:13:58;1.13;;;1.02;;
53977;SDS011;39886;47.984;-1.586;2023-04-28T03:16:24;1.00;;;1.00;;
53977;SDS011;39886;47.984;-1.586;2023-04-28T03:18:50;1.58;;;1.10;;
53977;SDS011;39886;47.984;-1.586;2023-04-28T03:21:16;0.90;;;0.90;;
53977;SDS011;39886;47.984;-1.586;2023-04-28T03:23:41;0.88;;;0.88;;
53977;SDS011;39886;47.984;-1.586;2023-04-28T03:26:07;1.00;;;1.00;;
53977;SDS011;39886;47.984;-1.586;2023-04-28T03:28:33;1.50;;;1.15;;
53977;SDS011;39886;47.984;-1.586;2023-04-28T03:30:58;1.20;;;1.10;;
53977;SDS011;39886;47.984;-1.586;2023-04-28T03:33:24;0.93;;;0.93;;
53977;SDS011;39886;47.984;-1.586;2023-04-28T03:35:50;0.90;;;0.90;;
53977;SDS011;39886;47.984;-1.586;2023-04-28T03:38:17;0.82;;;0.82;;
53977;SDS011;39886;47.984;-1.586;2023-04-28T03:40:43;0.95;;;0.95;;
53977;SDS011;39886;47.984;-1.586;2023-04-28T03:43:09;1.10;;;1.00;;
53977;SDS011;39886;47.984;-1.586;2023-04-28T03:45:34;0.90;;;0.90;;
53977;SDS011;39886;47.984;-1.586;2023-04-28T03:48:00;0.93;;;0.93;;
53977;SDS011;39886;47.984;-1.586;2023-04-28T03:50:26;1.08;;;0.98;;
53977;SDS011;39886;47.984;-1.586;2023-04-28T03:52:52;1.25;;;0.95;;
53977;SDS011;39886;47.984;-1.586;2023-04-28T03:55:17;0.90;;;0.90;;
53977;SDS011;39886;47.984;-1.586;2023-04-28T03:57:43;0.80;;;0.80;;
53977;SDS011;39886;47.984;-1.586;2023-04-28T04:00:09;1.15;;;1.00;;
53977;SDS011;39886;47.984;-1.586;2023-04-28T04:02:36;1.10;;;1.10;;
53977;SDS011;39886;47.984;-1.586;2023-04-28T04:05:01;0.95;;;0.95;;
53977;SDS011;39886;47.984;-1.586;2023-04-28T04:07:27;0.98;;;0.98;;
53977;SDS011;39886;47.984;-1.586;2023-04-28T04:09:53;1.00;;;1.00;;
53977;SDS011;39886;47.984;-1.586;2023-04-28T04:12:19;1.95;;;1.25;;
53977;SDS011;39886;47.984;-1.586;2023-04-28T04:14:44;1.20;;;1.10;;
53977;SDS011;39886;47.984;-1.586;2023-04-28T04:17:10;0.80;;;0.80;;
53977;SDS011;39886;47.984;-1.586;2023-04-28T04:19:36;1.20;;;1.10;;
53977;SDS011;39886;47.984;-1.586;2023-04-28T04:22:01;1.10;;;1.10;;
53977;SDS011;39886;47.984;-1.586;2023-04-28T04:24:27;1.17;;;1.08;;
53977;SDS011;39886;47.984;-1.586;2023-04-28T04:26:53;1.23;;;1.00;;
53977;SDS011;39886;47.984;-1.586;2023-04-28T04:29:18;0.95;;;0.90;;
53977;SDS011;39886;47.984;-1.586;2023-04-28T04:31:44;1.08;;;0.98;;
53977;SDS011;39886;47.984;-1.586;2023-04-28T04:34:10;0.90;;;0.90;;
53977;SDS011;39886;47.984;-1.586;2023-04-28T04:36:36;0.95;;;0.80;;
53977;SDS011;39886;47.984;-1.586;2023-04-28T04:39:01;1.02;;;0.93;;
53977;SDS011;39886;47.984;-1.586;2023-04-28T04:41:27;1.13;;;1.08;;
53977;SDS011;39886;47.984;-1.586;2023-04-28T04:43:53;0.85;;;0.85;;
53977;SDS011;39886;47.984;-1.586;2023-04-28T04:46:19;0.85;;;0.85;;
53977;SDS011;39886;47.984;-1.586;2023-04-28T04:48:45;0.85;;;0.85;;
53977;SDS011;39886;47.984;-1.586;2023-04-28T04:51:11;1.00;;;1.00;;
53977;SDS011;39886;47.984;-1.586;2023-04-28T04:53:37;0.85;;;0.85;;
53977;SDS011;39886;47.984;-1.586;2023-04-28T04:56:03;1.00;;;1.00;;
53977;SDS011;39886;47.984;-1.586;2023-04-28T04:58:29;0.90;;;0.90;;
53977;SDS011;39886;47.984;-1.586;2023-04-28T05:00:55;1.40;;;1.00;;
53977;SDS011;39886;47.984;-1.586;2023-04-28T05:03:21;1.00;;;1.00;;
53977;SDS011;39886;47.984;-1.586;2023-04-28T05:05:47;0.80;;;0.80;;
53977;SDS011;39886;47.984;-1.586;2023-04-28T05:08:13;0.93;;;0.93;;
53977;SDS011;39886;47.984;-1.586;2023-04-28T05:10:39;1.00;;;0.93;;
53977;SDS011;39886;47.984;-1.586;2023-04-28T05:13:04;1.00;;;1.00;;
53977;SDS011;39886;47.984;-1.586;2023-04-28T05:15:31;1.00;;;1.00;;
53977;SDS011;39886;47.984;-1.586;2023-04-28T05:17:56;0.80;;;0.80;;
53977;SDS011;39886;47.984;-1.586;2023-04-28T05:20:22;1.00;;;0.95;;
53977;SDS011;39886;47.984;-1.586;2023-04-28T05:22:48;1.45;;;0.90;;
53977;SDS011;39886;47.984;-1.586;2023-04-28T05:25:14;1.02;;;1.00;;
53977;SDS011;39886;47.984;-1.586;2023-04-28T05:27:40;1.00;;;1.00;;
53977;SDS011;39886;47.984;-1.586;2023-04-28T05:30:06;0.80;;;0.80;;
53977;SDS011;39886;47.984;-1.586;2023-04-28T05:32:33;1.10;;;0.90;;
53977;SDS011;39886;47.984;-1.586;2023-04-28T05:35:00;0.90;;;0.90;;
53977;SDS011;39886;47.984;-1.586;2023-04-28T05:37:26;0.90;;;0.90;;
53977;SDS011;39886;47.984;-1.586;2023-04-28T05:39:52;1.40;;;1.05;;
53977;SDS011;39886;47.984;-1.586;2023-04-28T05:42:17;1.00;;;1.00;;
53977;SDS011;39886;47.984;-1.586;2023-04-28T05:44:44;0.90;;;0.90;;
53977;SDS011;39886;47.984;-1.586;2023-04-28T05:47:10;0.90;;;0.90;;
53977;SDS011;39886;47.984;-1.586;2023-04-28T05:49:36;0.90;;;0.90;;
53977;SDS011;39886;47.984;-1.586;2023-04-28T05:52:01;1.30;;;1.20;;
53977;SDS011;39886;47.984;-1.586;2023-04-28T05:54:28;0.75;;;0.75;;
53977;SDS011;39886;47.984;-1.586;2023-04-28T05:56:53;0.73;;;0.73;;
53977;SDS011;39886;47.984;-1.586;2023-04-28T05:59:19;0.88;;;0.88;;
53977;SDS011;39886;47.984;-1.586;2023-04-28T06:01:46;0.90;;;0.90;;
53977;SDS011;39886;47.984;-1.586;2023-04-28T06:04:12;1.10;;;1.00;;
53977;SDS011;39886;47.984;-1.586;2023-04-28T06:06:38;1.13;;;1.02;;
53977;SDS011;39886;47.984;-1.586;2023-04-28T06:09:03;0.80;;;0.80;;
53977;SDS011;39886;47.984;-1.586;2023-04-28T06:11:29;0.90;;;0.90;;
53977;SDS011;39886;47.984;-1.586;2023-04-28T06:13:55;0.65;;;0.65;;
53977;SDS011;39886;47.984;-1.586;2023-04-28T06:16:21;0.82;;;0.82;;
53977;SDS011;39886;47.984;-1.586;2023-04-28T06:18:47;1.10;;;0.80;;
53977;SDS011;39886;47.984;-1.586;2023-04-28T06:21:13;1.73;;;0.90;;
53977;SDS011;39886;47.984;-1.586;2023-04-28T06:23:40;0.85;;;0.85;;
53977;SDS011;39886;47.984;-1.586;2023-04-28T06:26:06;0.82;;;0.82;;
53977;SDS011;39886;47.984;-1.586;2023-04-28T06:28:33;0.70;;;0.70;;
53977;SDS011;39886;47.984;-1.586;2023-04-28T06:30:58;0.80;;;0.80;;
53977;SDS011;39886;47.984;-1.586;2023-04-28T06:33:24;0.82;;;0.82;;
53977;SDS011;39886;47.984;-1.586;2023-04-28T06:35:50;0.80;;;0.80;;
53977;SDS011;39886;47.984;-1.586;2023-04-28T06:38:17;0.88;;;0.70;;
53977;SDS011;39886;47.984;-1.586;2023-04-28T06:40:43;0.70;;;0.70;;
53977;SDS011;39886;47.984;-1.586;2023-04-28T06:43:10;0.70;;;0.70;;
53977;SDS011;39886;47.984;-1.586;2023-04-28T06:45:36;0.82;;;0.82;;
53977;SDS011;39886;47.984;-1.586;2023-04-28T06:48:03;0.75;;;0.75;;
53977;SDS011;39886;47.984;-1.586;2023-04-28T06:50:29;0.70;;;0.70;;
53977;SDS011;39886;47.984;-1.586;2023-04-28T06:52:54;0.75;;;0.75;;
53977;SDS011;39886;47.984;-1.586;2023-04-28T06:55:20;0.60;;;0.60;;
53977;SDS011;39886;47.984;-1.586;2023-04-28T06:57:46;0.85;;;0.85;;
53977;SDS011;39886;47.984;-1.586;2023-04-28T07:00:12;0.70;;;0.70;;
53977;SDS011;39886;47.984;-1.586;2023-04-28T07:02:38;0.85;;;0.85;;
53977;SDS011;39886;47.984;-1.586;2023-04-28T07:05:04;0.70;;;0.70;;
53977;SDS011;39886;47.984;-1.586;2023-04-28T07:07:30;0.80;;;0.80;;
53977;SDS011;39886;47.984;-1.586;2023-04-28T07:09:56;1.00;;;0.75;;
53977;SDS011;39886;47.984;-1.586;2023-04-28T07:12:23;4.68;;;0.70;;
53977;SDS011;39886;47.984;-1.586;2023-04-28T07:14:49;0.98;;;0.90;;
53977;SDS011;39886;47.984;-1.586;2023-04-28T07:17:15;1.05;;;0.80;;
53977;SDS011;39886;47.984;-1.586;2023-04-28T07:19:41;1.20;;;0.75;;
53977;SDS011;39886;47.984;-1.586;2023-04-28T07:22:07;0.93;;;0.70;;
53977;SDS011;39886;47.984;-1.586;2023-04-28T07:24:32;0.60;;;0.60;;
53977;SDS011;39886;47.984;-1.586;2023-04-28T07:26:58;2.40;;;0.75;;
53977;SDS011;39886;47.984;-1.586;2023-04-28T07:29:25;0.70;;;0.70;;
53977;SDS011;39886;47.984;-1.586;2023-04-28T07:31:53;0.68;;;0.68;;
53977;SDS011;39886;47.984;-1.586;2023-04-28T07:34:18;0.55;;;0.55;;
53977;SDS011;39886;47.984;-1.586;2023-04-28T07:36:44;1.50;;;0.70;;
53977;SDS011;39886;47.984;-1.586;2023-04-28T07:39:11;2.05;;;0.80;;
53977;SDS011;39886;47.984;-1.586;2023-04-28T07:41:37;0.70;;;0.70;;
53977;SDS011;39886;47.984;-1.586;2023-04-28T07:44:03;0.75;;;0.75;;
53977;SDS011;39886;47.984;-1.586;2023-04-28T07:46:32;0.70;;;0.70;;
53977;SDS011;39886;47.984;-1.586;2023-04-28T07:48:58;0.93;;;0.70;;
53977;SDS011;39886;47.984;-1.586;2023-04-28T07:51:23;0.98;;;0.50;;
53977;SDS011;39886;47.984;-1.586;2023-04-28T07:53:49;1.55;;;0.60;;
53977;SDS011;39886;47.984;-1.586;2023-04-28T07:56:15;0.93;;;0.70;;
53977;SDS011;39886;47.984;-1.586;2023-04-28T07:58:41;0.70;;;0.70;;
53977;SDS011;39886;47.984;-1.586;2023-04-28T08:01:06;1.13;;;0.90;;
53977;SDS011;39886;47.984;-1.586;2023-04-28T08:03:32;0.73;;;0.70;;
53977;SDS011;39886;47.984;-1.586;2023-04-28T08:05:58;1.40;;;0.80;;
53977;SDS011;39886;47.984;-1.586;2023-04-28T08:08:25;0.80;;;0.80;;
53977;SDS011;39886;47.984;-1.586;2023-04-28T08:10:50;1.00;;;0.90;;
53977;SDS011;39886;47.984;-1.586;2023-04-28T08:13:17;1.15;;;0.80;;
53977;SDS011;39886;47.984;-1.586;2023-04-28T08:15:43;1.73;;;1.02;;
53977;SDS011;39886;47.984;-1.586;2023-04-28T08:18:09;0.77;;;0.77;;
53977;SDS011;39886;47.984;-1.586;2023-04-28T08:20:35;2.97;;;0.63;;
53977;SDS011;39886;47.984;-1.586;2023-04-28T08:23:00;0.55;;;0.55;;
53977;SDS011;39886;47.984;-1.586;2023-04-28T08:25:26;0.85;;;0.80;;
53977;SDS011;39886;47.984;-1.586;2023-04-28T08:27:52;0.75;;;0.75;;
53977;SDS011;39886;47.984;-1.586;2023-04-28T08:30:19;0.60;;;0.60;;
53977;SDS011;39886;47.984;-1.586;2023-04-28T08:32:45;1.27;;;0.60;;
53977;SDS011;39886;47.984;-1.586;2023-04-28T08:35:11;0.60;;;0.60;;
53977;SDS011;39886;47.984;-1.586;2023-04-28T08:37:39;0.70;;;0.70;;
53977;SDS011;39886;47.984;-1.586;2023-04-28T08:40:05;1.33;;;0.73;;
53977;SDS011;39886;47.984;-1.586;2023-04-28T08:42:34;0.60;;;0.60;;
53977;SDS011;39886;47.984;-1.586;2023-04-28T08:45:02;0.73;;;0.73;;
53977;SDS011;39886;47.984;-1.586;2023-04-28T08:47:33;1.27;;;0.70;;
53977;SDS011;39886;47.984;-1.586;2023-04-28T08:50:05;1.13;;;0.90;;
53977;SDS011;39886;47.984;-1.586;2023-04-28T08:52:32;0.80;;;0.80;;
53977;SDS011;39886;47.984;-1.586;2023-04-28T08:54:59;1.08;;;0.82;;
53977;SDS011;39886;47.984;-1.586;2023-04-28T08:57:34;0.85;;;0.60;;
53977;SDS011;39886;47.984;-1.586;2023-04-28T09:00:09;2.40;;;0.98;;
53977;SDS011;39886;47.984;-1.586;2023-04-28T09:02:36;1.15;;;0.60;;
53977;SDS011;39886;47.984;-1.586;2023-04-28T09:05:03;1.17;;;0.80;;
53977;SDS011;39886;47.984;-1.586;2023-04-28T09:07:31;1.67;;;0.70;;
53977;SDS011;39886;47.984;-1.586;2023-04-28T09:12:42;0.85;;;0.80;;
53977;SDS011;39886;47.984;-1.586;2023-04-28T09:15:08;1.75;;;0.90;;
53977;SDS011;39886;47.984;-1.586;2023-04-28T09:17:50;0.73;;;0.70;;
53977;SDS011;39886;47.984;-1.586;2023-04-28T09:20:20;1.65;;;0.70;;
53977;SDS011;39886;47.984;-1.586;2023-04-28T09:22:53;2.13;;;0.73;;
53977;SDS011;39886;47.984;-1.586;2023-04-28T09:25:20;2.15;;;0.73;;
53977;SDS011;39886;47.984;-1.586;2023-04-28T09:27:47;1.05;;;0.60;;
53977;SDS011;39886;47.984;-1.586;2023-04-28T09:30:16;0.60;;;0.60;;
53977;SDS011;39886;47.984;-1.586;2023-04-28T09:32:42;0.85;;;0.75;;
53977;SDS011;39886;47.984;-1.586;2023-04-28T09:35:08;1.23;;;0.70;;
53977;SDS011;39886;47.984;-1.586;2023-04-28T09:37:34;0.73;;;0.70;;
53977;SDS011;39886;47.984;-1.586;2023-04-28T09:40:05;0.65;;;0.65;;
53977;SDS011;39886;47.984;-1.586;2023-04-28T09:42:36;2.20;;;0.73;;
53977;SDS011;39886;47.984;-1.586;2023-04-28T09:47:31;1.42;;;0.70;;
53977;SDS011;39886;47.984;-1.586;2023-04-28T09:50:02;1.20;;;0.73;;
53977;SDS011;39886;47.984;-1.586;2023-04-28T09:52:29;0.82;;;0.80;;
53977;SDS011;39886;47.984;-1.586;2023-04-28T09:54:55;1.08;;;0.73;;
53977;SDS011;39886;47.984;-1.586;2023-04-28T09:57:21;0.82;;;0.70;;
53977;SDS011;39886;47.984;-1.586;2023-04-28T09:59:51;1.17;;;0.77;;
53977;SDS011;39886;47.984;-1.586;2023-04-28T10:02:18;0.63;;;0.63;;
53977;SDS011;39886;47.984;-1.586;2023-04-28T10:04:46;1.83;;;0.80;;
53977;SDS011;39886;47.984;-1.586;2023-04-28T10:07:14;1.55;;;0.70;;
53977;SDS011;39886;47.984;-1.586;2023-04-28T10:09:43;3.25;;;0.80;;
53977;SDS011;39886;47.984;-1.586;2023-04-28T10:12:21;1.77;;;0.73;;
53977;SDS011;39886;47.984;-1.586;2023-04-28T10:14:49;1.63;;;0.75;;
53977;SDS011;39886;47.984;-1.586;2023-04-28T10:17:18;1.02;;;0.70;;
53977;SDS011;39886;47.984;-1.586;2023-04-28T10:19:46;0.70;;;0.70;;
53977;SDS011;39886;47.984;-1.586;2023-04-28T10:27:40;1.17;;;0.82;;
53977;SDS011;39886;47.984;-1.586;2023-04-28T10:30:14;1.77;;;0.88;;
53977;SDS011;39886;47.984;-1.586;2023-04-28T10:32:41;0.95;;;0.65;;
53977;SDS011;39886;47.984;-1.586;2023-04-28T10:42:58;1.27;;;0.60;;
53977;SDS011;39886;47.984;-1.586;2023-04-28T10:58:51;0.60;;;0.60;;
53977;SDS011;39886;47.984;-1.586;2023-04-28T11:01:23;2.10;;;0.98;;
53977;SDS011;39886;47.984;-1.586;2023-04-28T11:04:02;1.35;;;0.73;;
53977;SDS011;39886;47.984;-1.586;2023-04-28T11:06:41;1.30;;;1.20;;
53977;SDS011;39886;47.984;-1.586;2023-04-28T11:12:24;0.70;;;0.70;;
53977;SDS011;39886;47.984;-1.586;2023-04-28T11:16:54;0.70;;;0.70;;
53977;SDS011;39886;47.984;-1.586;2023-04-28T11:19:42;1.73;;;0.80;;
53977;SDS011;39886;47.984;-1.586;2023-04-28T11:22:13;1.63;;;0.88;;
53977;SDS011;39886;47.984;-1.586;2023-04-28T11:24:40;1.05;;;0.80;;
53977;SDS011;39886;47.984;-1.586;2023-04-28T11:27:06;0.80;;;0.70;;
53977;SDS011;39886;47.984;-1.586;2023-04-28T11:29:35;1.23;;;0.80;;
53977;SDS011;39886;47.984;-1.586;2023-04-28T11:32:07;1.10;;;0.75;;
53977;SDS011;39886;47.984;-1.586;2023-04-28T11:34:34;1.40;;;0.80;;
53977;SDS011;39886;47.984;-1.586;2023-04-28T11:37:01;1.42;;;0.90;;
53977;SDS011;39886;47.984;-1.586;2023-04-28T11:39:28;1.92;;;0.82;;
53977;SDS011;39886;47.984;-1.586;2023-04-28T11:41:55;1.80;;;0.80;;
53977;SDS011;39886;47.984;-1.586;2023-04-28T11:44:23;1.52;;;0.80;;
53977;SDS011;39886;47.984;-1.586;2023-04-28T11:49:24;0.88;;;0.88;;
53977;SDS011;39886;47.984;-1.586;2023-04-28T11:51:53;1.10;;;0.70;;
53977;SDS011;39886;47.984;-1.586;2023-04-28T11:54:20;1.52;;;1.20;;
53977;SDS011;39886;47.984;-1.586;2023-04-28T11:56:47;3.00;;;0.95;;
53977;SDS011;39886;47.984;-1.586;2023-04-28T11:59:14;1.25;;;0.80;;
53977;SDS011;39886;47.984;-1.586;2023-04-28T12:01:52;1.33;;;0.80;;
53977;SDS011;39886;47.984;-1.586;2023-04-28T12:04:27;0.95;;;0.82;;
53977;SDS011;39886;47.984;-1.586;2023-04-28T12:07:05;1.83;;;1.00;;
53977;SDS011;39886;47.984;-1.586;2023-04-28T12:09:34;1.13;;;1.00;;
53977;SDS011;39886;47.984;-1.586;2023-04-28T12:12:01;1.42;;;0.80;;
53977;SDS011;39886;47.984;-1.586;2023-04-28T12:14:29;2.92;;;0.90;;
53977;SDS011;39886;47.984;-1.586;2023-04-28T12:17:04;1.65;;;0.90;;
53977;SDS011;39886;47.984;-1.586;2023-04-28T12:19:41;1.45;;;0.80;;
53977;SDS011;39886;47.984;-1.586;2023-04-28T12:22:08;3.33;;;0.98;;
53977;SDS011;39886;47.984;-1.586;2023-04-28T12:24:34;1.45;;;1.00;;
53977;SDS011;39886;47.984;-1.586;2023-04-28T12:27:21;1.95;;;0.85;;
53977;SDS011;39886;47.984;-1.586;2023-04-28T12:29:46;1.50;;;1.00;;
53977;SDS011;39886;47.984;-1.586;2023-04-28T12:32:12;1.25;;;1.00;;
53977;SDS011;39886;47.984;-1.586;2023-04-28T12:34:39;5.78;;;1.10;;
53977;SDS011;39886;47.984;-1.586;2023-04-28T12:37:06;0.85;;;0.80;;
53977;SDS011;39886;47.984;-1.586;2023-04-28T12:39:32;2.50;;;1.20;;
53977;SDS011;39886;47.984;-1.586;2023-04-28T12:42:00;2.60;;;1.02;;
53977;SDS011;39886;47.984;-1.586;2023-04-28T12:44:26;1.40;;;0.90;;
53977;SDS011;39886;47.984;-1.586;2023-04-28T12:47:02;1.50;;;0.80;;
53977;SDS011;39886;47.984;-1.586;2023-04-28T12:49:29;2.85;;;1.00;;
53977;SDS011;39886;47.984;-1.586;2023-04-28T12:51:56;2.63;;;1.13;;
53977;SDS011;39886;47.984;-1.586;2023-04-28T12:54:21;0.90;;;0.80;;
53977;SDS011;39886;47.984;-1.586;2023-04-28T12:56:47;2.83;;;1.10;;
53977;SDS011;39886;47.984;-1.586;2023-04-28T12:59:14;2.80;;;1.02;;
53977;SDS011;39886;47.984;-1.586;2023-04-28T13:01:40;2.92;;;1.00;;
53977;SDS011;39886;47.984;-1.586;2023-04-28T13:04:06;3.67;;;1.10;;
53977;SDS011;39886;47.984;-1.586;2023-04-28T13:06:33;3.47;;;1.30;;
53977;SDS011;39886;47.984;-1.586;2023-04-28T13:09:00;2.33;;;1.15;;
53977;SDS011;39886;47.984;-1.586;2023-04-28T13:11:28;3.20;;;1.05;;
53977;SDS011;39886;47.984;-1.586;2023-04-28T13:13:53;1.77;;;0.90;;
53977;SDS011;39886;47.984;-1.586;2023-04-28T13:16:21;4.47;;;1.20;;
53977;SDS011;39886;47.984;-1.586;2023-04-28T13:18:49;2.50;;;1.20;;
53977;SDS011;39886;47.984;-1.586;2023-04-28T13:21:15;2.05;;;1.10;;
53977;SDS011;39886;47.984;-1.586;2023-04-28T13:23:41;3.92;;;1.42;;
53977;SDS011;39886;47.984;-1.586;2023-04-28T13:26:07;1.52;;;1.20;;
53977;SDS011;39886;47.984;-1.586;2023-04-28T13:28:33;4.05;;;1.40;;
53977;SDS011;39886;47.984;-1.586;2023-04-28T13:30:58;1.23;;;1.13;;
53977;SDS011;39886;47.984;-1.586;2023-04-28T13:33:24;2.95;;;1.10;;
53977;SDS011;39886;47.984;-1.586;2023-04-28T13:35:55;3.35;;;1.30;;
53977;SDS011;39886;47.984;-1.586;2023-04-28T13:38:22;2.88;;;1.45;;
53977;SDS011;39886;47.984;-1.586;2023-04-28T13:40:49;2.78;;;1.50;;
53977;SDS011;39886;47.984;-1.586;2023-04-28T13:43:15;3.08;;;1.40;;
53977;SDS011;39886;47.984;-1.586;2023-04-28T13:45:41;1.58;;;1.15;;
53977;SDS011;39886;47.984;-1.586;2023-04-28T13:48:07;4.38;;;1.15;;
53977;SDS011;39886;47.984;-1.586;2023-04-28T13:50:33;3.20;;;1.38;;
53977;SDS011;39886;47.984;-1.586;2023-04-28T13:52:58;3.30;;;1.50;;
53977;SDS011;39886;47.984;-1.586;2023-04-28T13:55:24;2.03;;;1.13;;
53977;SDS011;39886;47.984;-1.586;2023-04-28T13:57:52;2.45;;;1.27;;
53977;SDS011;39886;47.984;-1.586;2023-04-28T14:00:19;2.33;;;1.30;;
53977;SDS011;39886;47.984;-1.586;2023-04-28T14:02:45;3.35;;;1.33;;
53977;SDS011;39886;47.984;-1.586;2023-04-28T14:05:13;4.25;;;1.40;;
53977;SDS011;39886;47.984;-1.586;2023-04-28T14:07:41;4.93;;;1.45;;
53977;SDS011;39886;47.984;-1.586;2023-04-28T14:10:07;2.60;;;1.20;;
53977;SDS011;39886;47.984;-1.586;2023-04-28T14:12:33;5.18;;;1.85;;
53977;SDS011;39886;47.984;-1.586;2023-04-28T14:14:59;3.17;;;1.40;;
53977;SDS011;39886;47.984;-1.586;2023-04-28T14:17:25;2.45;;;1.38;;
53977;SDS011;39886;47.984;-1.586;2023-04-28T14:19:52;2.88;;;1.20;;
53977;SDS011;39886;47.984;-1.586;2023-04-28T14:22:18;1.30;;;1.20;;
53977;SDS011;39886;47.984;-1.586;2023-04-28T14:24:44;2.00;;;1.30;;
53977;SDS011;39886;47.984;-1.586;2023-04-28T14:27:10;3.83;;;1.30;;
53977;SDS011;39886;47.984;-1.586;2023-04-28T14:29:35;1.85;;;1.08;;
53977;SDS011;39886;47.984;-1.586;2023-04-28T14:32:01;4.22;;;1.33;;
53977;SDS011;39886;47.984;-1.586;2023-04-28T14:34:27;1.50;;;1.13;;
53977;SDS011;39886;47.984;-1.586;2023-04-28T14:36:53;2.75;;;1.25;;
53977;SDS011;39886;47.984;-1.586;2023-04-28T14:39:19;2.47;;;1.40;;
53977;SDS011;39886;47.984;-1.586;2023-04-28T14:41:44;1.48;;;1.20;;
53977;SDS011;39886;47.984;-1.586;2023-04-28T14:44:10;1.30;;;1.20;;
53977;SDS011;39886;47.984;-1.586;2023-04-28T14:46:36;2.13;;;1.10;;
53977;SDS011;39886;47.984;-1.586;2023-04-28T14:49:02;3.65;;;1.50;;
53977;SDS011;39886;47.984;-1.586;2023-04-28T14:51:28;3.53;;;1.17;;
53977;SDS011;39886;47.984;-1.586;2023-04-28T14:53:54;3.03;;;1.30;;
53977;SDS011;39886;47.984;-1.586;2023-04-28T14:56:19;1.40;;;1.15;;
53977;SDS011;39886;47.984;-1.586;2023-04-28T14:58:45;3.67;;;1.50;;
53977;SDS011;39886;47.984;-1.586;2023-04-28T15:01:12;1.88;;;1.20;;
53977;SDS011;39886;47.984;-1.586;2023-04-28T15:03:38;1.42;;;1.08;;
53977;SDS011;39886;47.984;-1.586;2023-04-28T15:06:04;1.88;;;1.10;;
53977;SDS011;39886;47.984;-1.586;2023-04-28T15:08:30;2.70;;;1.33;;
53977;SDS011;39886;47.984;-1.586;2023-04-28T15:10:57;3.70;;;1.30;;